MSY weather

Louis Armstrong New Orleans International Airport
New Orleans, Louisiana, United States

Public forecast

Using degrees Fahrenheit for public forecast. Weather courtesy of forecast.io.

Current aviation weather report (METAR) for Louis Armstrong New Orleans International Airport

Retrieved 2019/10/21 23:53 UTC (50 minutes ago):

KMSY 212353Z 23010KT 10SM -RA FEW040 FEW095 OVC110 23/22 A2983 RMK AO2 SLP105 P0001 60059 T02330217 10244 20228 55006

Aviation forecast (TAF) for Louis Armstrong New Orleans International Airport

Retrieved 2019-10-22 00:24 UTC (19 minutes ago):

TAF KMSY 212322Z 2200/2306 24007KT 5SM -RA BR SCT010 BKN050 TEMPO 2202/2203 BKN010 FM220300 30006KT P6SM BKN030 BKN110 FM220500 32006KT P6SM SCT015 BKN020 FM220700 35008KT P6SM SCT015 BKN025 FM220900 36010G19KT P6SM FEW060 SCT070